• Join FlightAware (Why Join?)
  • Login
  • US Flag 
12:31PM EDT


 

Airport Tracker/Info


-or-


 

Live Flight TrackerFlight Track Log ✈ N66BS ✈ 12-Aug-2013 ✈ KAUS - MMAN / NTR

Flight Track Log - Related Links

Times and Time Zones

All times are in EDT time to prevent confusion due to time zone crossing. See the N66BS flight status page for this flight to view local times or setup timezone preferences in your user account.

Time Position Orientation Groundspeed Altitude Reporting Facility
EDT Latitude Longitude Course Direction KTS MPH feet Rate Location/Type
05:56PM 30.1319 -97.7231 228° Southwest 134 154 5,700  Level Houston Center
05:56PM 30.1278 -97.7528 261° West 159 183 6,900 1,860 Climbing Houston Center
05:57PM 30.1131 -97.7958 248° West 150 173 8,700 1,800 Climbing Houston Center
05:58PM 30.1047 -97.8158 244° Southwest 151 174 9,600 1,680 Climbing Houston Center
05:59PM 30.0847 -97.8592 242° Southwest 152 175 11,300 1,560 Climbing Houston Center
06:00PM 30.2739 -97.6428 221° Southwest  Level FlightAware Approximate
06:00PM 30.0667 -97.9092 247° West 157 181 12,900  Level Houston Center
06:01PM 30.2305 -97.6918 228° Southwest  Level FlightAware Approximate
06:01PM 30.0450 -97.9600 244° Southwest 166 191 14,200  Level Houston Center
06:02PM 30.0111 -97.9986 225° Southwest 170 196 15,500 1,140 Climbing Houston Center
06:03PM 29.9767 -98.0431 228° Southwest 173 199 16,600 960 Climbing Houston Center
06:04PM 29.9433 -98.0853 228° Southwest 177 204 17,600 960 Climbing Houston Center
06:05PM 29.9086 -98.1289 227° Southwest 184 212 18,600 1,020 Climbing Houston Center
06:06PM 29.8714 -98.1758 228° Southwest 183 211 19,800 960 Climbing Houston Center
06:07PM 29.8367 -98.2189 227° Southwest 184 212 20,600 780 Climbing Houston Center
06:08PM 29.7989 -98.2672 228° Southwest 189 217 21,500 720 Climbing Houston Center
06:09PM 29.7631 -98.3128 228° Southwest 193 222 22,200 660 Climbing Houston Center
06:10PM 29.7236 -98.3628 228° Southwest 196 226 22,900 600 Climbing Houston Center
06:11PM 29.6864 -98.4100 228° Southwest 199 229 23,500 480 Climbing Houston Center
06:12PM 29.6478 -98.4603 229° Southwest 204 235 24,000 240 Climbing Houston Center
06:13PM 29.5908 -98.4958 209° Southwest 236 272 24,000  Level Houston Center
06:14PM 29.5289 -98.5192 198° South 234 269 24,000  Level Houston Center
06:15PM 29.4564 -98.5522 202° Southwest 249 287 24,000  Level Houston Center
06:16PM 29.3897 -98.5875 205° Southwest 246 283 24,000  Level Houston Center
06:17PM 29.3261 -98.6167 202° Southwest 247 284 24,000  Level Houston Center
06:18PM 29.2628 -98.6475 203° Southwest 247 284 24,000  Level Houston Center
06:19PM 29.1950 -98.6811 203° Southwest 246 283 24,000  Level Houston Center
06:20PM 29.1322 -98.7111 203° Southwest 245 282 24,000  Level Houston Center
06:21PM 29.0644 -98.7439 203° Southwest 246 283 24,000  Level Houston Center
06:22PM 29.0019 -98.7739 203° Southwest 244 281 24,000  Level Houston Center
06:24PM 28.9394 -98.8036 203° Southwest 243 280 24,000  Level Houston Center
06:25PM 28.8719 -98.8367 203° Southwest 245 282 24,000  Level Houston Center
06:26PM 28.8094 -98.8672 203° Southwest 245 282 24,000  Level Houston Center
06:27PM 28.7431 -98.9022 205° Southwest 244 281 24,000  Level Houston Center
06:28PM 28.6800 -98.9344 204° Southwest 249 287 24,000  Level Houston Center
06:29PM 28.6242 -98.9617 203° Southwest 249 287 24,000  Level Houston Center
06:30PM 28.5511 -99.0000 205° Southwest 242 278 24,000  Level Houston Center
06:31PM 28.4892 -99.0325 205° Southwest 243 280 24,000  Level Houston Center
06:32PM 28.4275 -99.0644 204° Southwest 244 281 24,000  Level Houston Center
06:33PM 28.3656 -99.0961 204° Southwest 243 280 24,000  Level Houston Center
06:34PM 28.3028 -99.1275 204° Southwest 245 282 24,000  Level Houston Center
06:35PM 28.2411 -99.1589 204° Southwest 244 281 24,000  Level Houston Center
06:36PM 28.1672 -99.1975 205° Southwest 243 280 24,000  Level Houston Center
06:37PM 28.1050 -99.2286 204° Southwest 244 281 24,000  Level Houston Center
06:38PM 28.0442 -99.2603 205° Southwest 242 278 24,000  Level Houston Center
06:39PM 27.9831 -99.2906 204° Southwest 241 277 24,000  Level Houston Center
06:40PM 27.9219 -99.3225 205° Southwest 241 277 24,000  Level Houston Center
06:41PM 27.8619 -99.3528 204° Southwest 237 273 24,000  Level Houston Center
06:42PM 27.7886 -99.3897 204° Southwest 239 275 24,000  Level Houston Center
06:43PM 27.7289 -99.4206 205° Southwest 238 274 24,000  Level Houston Center
06:44PM 27.6686 -99.4503 204° Southwest 237 273 24,000  Level Houston Center
06:45PM 27.6086 -99.4814 205° Southwest 239 275 24,000  Level Houston Center
06:46PM 27.5492 -99.5117 204° Southwest 235 270 24,000  Level Houston Center
06:47PM 27.4883 -99.5408 203° Southwest 238 274 24,000  Level Houston Center
06:49PM 27.4159 -99.5669 197° South  Level FlightAware Approximate
06:56PM 27.0132 -99.7012 197° South  Level FlightAware Approximate
06:57PM 26.9556 -99.7202 196° South  Level FlightAware Approximate
06:58PM 26.8979 -99.7384 196° South  Level FlightAware Approximate
06:59PM 26.8401 -99.7567 196° South  Level FlightAware Approximate
07:00PM 26.7824 -99.7749 196° South  Level FlightAware Approximate
07:01PM 26.7246 -99.7932 196° South  Level FlightAware Approximate
07:02PM 26.6669 -99.8114 196° South  Level FlightAware Approximate
07:03PM 26.6091 -99.8295 196° South  Level FlightAware Approximate
07:04PM 26.5513 -99.8476 196° South  Level FlightAware Approximate
07:05PM 26.4935 -99.8656 196° South  Level FlightAware Approximate
07:06PM 26.4357 -99.8837 196° South  Level FlightAware Approximate
07:07PM 26.3779 -99.9016 195° South  Level FlightAware Approximate
07:08PM 26.3200 -99.9190 195° South  Level FlightAware Approximate
07:09PM 26.2620 -99.9364 195° South  Level FlightAware Approximate
07:10PM 26.2042 -99.9542 197° South  Level FlightAware Approximate
07:11PM 26.1467 -99.9734 197° South  Level FlightAware Approximate
07:12PM 26.0892 -99.9925 197° South  Level FlightAware Approximate
07:13PM 26.0317 -100.0117 197° South  Level FlightAware Approximate
07:14PM 25.9739 -100.0295 195° South  Level FlightAware Approximate
07:15PM 25.9160 -100.0469 195° South  Level FlightAware Approximate
07:16PM 25.8581 -100.0642 195° South  Level FlightAware Approximate
07:17PM 25.8014 -100.0861 200° South  Level FlightAware Approximate
07:18PM 25.7815 -100.1197 310° West  Level FlightAware Approximate
07:19PM 25.8194 -100.1713 304° West  Level FlightAware Approximate
07:20PM 25.8527 -100.2267 304° West  Level FlightAware Approximate
07:21PM 25.8656 -100.2372 304° West  Level Estimated
07:22PM 25.8656 -100.2372 304° West  Level Estimated
07:23PM 25.8656 -100.2372 304° West  Level Estimated
07:24PM 25.8656 -100.2372 304° West  Level Estimated
07:25PM 25.8656 -100.2372 304° West  Level Estimated
07:26PM 25.8656 -100.2372 304° West  Level Estimated
07:27PM 25.8656 -100.2372 304° West  Level Estimated
07:28PM 25.8656 -100.2372 304° West  Level Estimated
07:29PM 25.8656 -100.2372 304° West  Level Estimated
07:30PM 25.8656 -100.2372 304° West  Level Estimated
07:31PM 25.8656 -100.2372 304° West  Level Estimated
07:32PM 25.8656 -100.2372 304° West  Level Estimated
07:33PM 25.8656 -100.2372 304° West  Level Estimated
07:34PM 25.8656 -100.2372 304° West  Level Estimated
07:35PM 25.8656 -100.2372 304° West  Level Estimated
07:36PM 25.8656 -100.2372 304° West  Level Estimated